Terminal Aerodrome Forecast
Issued by NWS Springfield, MO

Home | Current Version | Previous Version | Text Only | Print | Product List | Glossary On
Versions: 1 2 3 4 5 6 7 8 9 10 11 12 13 14 15 16 17 18 19
000
FTUS43 KSGF 272300
TAFSGF
TAF
KSGF 272320Z 2800/2824 19010G16KT P6SM BKN150
     FM280300 23009KT P6SM SCT050 BKN100
      TEMPO 2805/2809 5SM -TSRA BR BKN040CB
     FM280900 32009KT P6SM VCSH BKN040 OVC100
     FM281200 36008KT P6SM SCT250=

USA.gov is the U.S. government's official web portal to all federal, state and local government web resources and services.